createdAt,value
2018-01-25T00:01:23.385Z,100241.76
2018-01-25T00:03:51.820Z,100251.70
2018-01-25T00:06:20.973Z,100251.88
2018-01-25T00:08:49.398Z,100257.05
2018-01-25T00:11:18.577Z,100251.02
2018-01-25T00:13:46.937Z,100255.26
2018-01-25T00:16:15.360Z,100259.58
2018-01-25T00:18:44.575Z,100256.23
2018-01-25T00:21:13.774Z,100256.92
2018-01-25T00:23:42.958Z,100255.20
2018-01-25T00:26:12.284Z,100258.05
2018-01-25T00:28:40.644Z,100256.45
2018-01-25T00:31:09.843Z,100264.91
2018-01-25T00:33:39.058Z,100264.23
2018-01-25T00:36:07.440Z,100263.60
2018-01-25T00:38:35.813Z,100260.57
2018-01-25T00:41:04.242Z,100268.09
2018-01-25T00:43:32.649Z,100261.00
2018-01-25T00:46:01.849Z,100263.36
2018-01-25T00:48:30.980Z,100258.74
2018-01-25T00:50:59.446Z,100266.05
2018-01-25T00:53:27.874Z,100266.99
2018-01-25T00:55:56.240Z,100269.54
2018-01-25T00:58:24.616Z,100269.41
2018-01-25T01:00:53.039Z,100272.33
2018-01-25T01:03:22.235Z,100265.41
2018-01-25T01:05:51.491Z,100263.73
2018-01-25T01:08:19.857Z,100262.73
2018-01-25T01:10:48.289Z,100264.31
2018-01-25T01:13:16.688Z,100261.28
2018-01-25T01:15:45.843Z,100253.39
2018-01-25T01:18:14.191Z,100253.19
2018-01-25T01:20:42.621Z,100258.01
2018-01-25T01:23:11.068Z,100261.58
2018-01-25T01:25:39.508Z,100269.76
2018-01-25T01:28:07.900Z,100264.61
2018-01-25T01:30:36.335Z,100266.72
2018-01-25T01:33:04.702Z,100270.75
2018-01-25T01:35:33.123Z,100259.87
2018-01-25T01:38:01.579Z,100266.16
2018-01-25T01:40:29.941Z,100253.02
2018-01-25T01:42:58.555Z,100257.91
2018-01-25T01:45:27.679Z,100255.45
2018-01-25T01:47:56.123Z,100249.84
2018-01-25T01:50:25.643Z,100249.16
2018-01-25T01:52:54.085Z,100240.97
2018-01-25T01:55:22.452Z,100248.86
2018-01-25T01:57:50.894Z,100247.67
2018-01-25T02:00:19.332Z,100243.42
2018-01-25T02:02:47.762Z,100244.33
2018-01-25T02:05:16.203Z,100245.99
2018-01-25T02:07:44.643Z,100254.92
2018-01-25T02:10:13.096Z,100260.03
2018-01-25T02:12:41.485Z,100255.78
2018-01-25T02:15:09.927Z,100252.69
2018-01-25T02:17:38.548Z,100251.33
2018-01-25T02:20:06.916Z,100256.39
2018-01-25T02:22:36.104Z,100252.70
2018-01-25T02:25:05.335Z,100255.33
2018-01-25T02:27:33.696Z,100250.75
2018-01-25T02:30:02.056Z,100250.11
2018-01-25T02:32:31.403Z,100244.93
2018-01-25T02:34:59.777Z,100245.16
2018-01-25T02:37:28.191Z,100246.48
2018-01-25T02:39:56.740Z,100253.38
2018-01-25T02:42:25.140Z,100238.83
2018-01-25T02:44:53.563Z,100229.11
2018-01-25T02:47:21.952Z,100228.42
2018-01-25T02:49:50.329Z,100234.58
2018-01-25T02:52:18.700Z,100237.72
2018-01-25T02:54:47.902Z,100237.78
2018-01-25T02:57:16.278Z,100240.84
2018-01-25T02:59:45.499Z,100236.75
2018-01-25T03:02:13.870Z,100244.26
2018-01-25T03:04:42.228Z,100227.17
2018-01-25T03:07:11.389Z,100228.91
2018-01-25T03:09:39.995Z,100232.94
2018-01-25T03:12:09.191Z,100228.69
2018-01-25T03:14:38.387Z,100241.52
2018-01-25T03:17:07.105Z,100243.23
2018-01-25T03:19:35.472Z,100247.97
2018-01-25T03:22:04.663Z,100248.99
2018-01-25T03:24:33.831Z,100241.72
2018-01-25T03:27:02.218Z,100241.90
2018-01-25T03:29:30.640Z,100252.84
2018-01-25T03:31:59.004Z,100256.09
2018-01-25T03:34:28.200Z,100258.98
2018-01-25T03:36:56.667Z,100257.63
2018-01-25T03:39:25.792Z,100256.67
2018-01-25T03:41:54.153Z,100258.63
2018-01-25T03:44:23.362Z,100254.41
2018-01-25T03:46:51.791Z,100258.89
2018-01-25T03:49:20.240Z,100258.59
2018-01-25T03:51:48.637Z,100250.30
2018-01-25T03:54:17.023Z,100256.02
2018-01-25T03:56:45.385Z,100261.57
2018-01-25T03:59:13.768Z,100257.30
2018-01-25T04:01:42.185Z,100260.16
2018-01-25T04:04:10.579Z,100257.91
2018-01-25T04:06:39.017Z,100252.78
2018-01-25T04:09:07.408Z,100254.48
2018-01-25T04:11:35.855Z,100247.00
2018-01-25T04:14:04.223Z,100261.55
2018-01-25T04:16:32.580Z,100256.88
2018-01-25T04:19:01.798Z,100260.19
2018-01-25T04:21:30.161Z,100263.72
2018-01-25T04:23:59.359Z,100269.88
2018-01-25T04:26:28.547Z,100270.41
2018-01-25T04:28:56.963Z,100270.62
2018-01-25T04:31:25.422Z,100264.11
2018-01-25T04:33:53.883Z,100265.97
2018-01-25T04:36:23.096Z,100267.13
2018-01-25T04:38:52.292Z,100279.55
2018-01-25T04:41:21.450Z,100278.40
2018-01-25T04:43:49.812Z,100281.11
2018-01-25T04:46:18.227Z,100284.63
2018-01-25T04:48:46.671Z,100279.31
2018-01-25T04:51:15.048Z,100283.95
2018-01-25T04:53:43.480Z,100291.11
2018-01-25T04:56:12.616Z,100288.88
2018-01-25T04:58:40.999Z,100283.23
2018-01-25T05:01:09.415Z,100283.64
2018-01-25T05:03:37.843Z,100279.73
2018-01-25T05:06:06.285Z,100282.58
2018-01-25T05:08:34.711Z,100280.67
2018-01-25T05:11:03.076Z,100292.33
2018-01-25T05:13:32.279Z,100286.57
2018-01-25T05:16:00.645Z,100278.38
2018-01-25T05:18:29.879Z,100277.73
2018-01-25T05:20:58.346Z,100285.11
2018-01-25T05:23:26.795Z,100284.34
2018-01-25T05:25:55.969Z,100290.52
2018-01-25T05:28:24.399Z,100288.93
2018-01-25T05:30:52.780Z,100296.09
2018-01-25T05:33:21.281Z,100289.96
2018-01-25T05:35:49.640Z,100299.67
2018-01-25T05:38:18.071Z,100298.26
2018-01-25T05:40:46.535Z,100302.19
2018-01-25T05:43:14.983Z,100302.91
2018-01-25T05:45:43.417Z,100308.34
2018-01-25T05:48:11.920Z,100306.80
2018-01-25T05:50:41.133Z,100310.73
2018-01-25T05:53:09.504Z,100319.03
2018-01-25T05:55:38.660Z,100322.55
2018-01-25T05:58:07.076Z,100326.53
2018-01-25T06:00:36.218Z,100341.44
2018-01-25T06:03:04.651Z,100365.31
2018-01-25T06:05:33.855Z,100366.27
2018-01-25T06:08:02.313Z,100372.10
2018-01-25T06:10:30.739Z,100367.84
2018-01-25T06:12:59.172Z,100383.35
2018-01-25T06:15:27.570Z,100389.61
2018-01-25T06:17:55.995Z,100389.91
2018-01-25T06:20:24.432Z,100393.89
2018-01-25T06:22:53.637Z,100397.80
2018-01-25T06:25:22.067Z,100401.06
2018-01-25T06:27:50.512Z,100405.20
2018-01-25T06:30:18.885Z,100415.64
2018-01-25T06:32:47.257Z,100407.56
2018-01-25T06:35:16.447Z,100412.87
2018-01-25T06:37:44.878Z,100417.99
2018-01-25T06:40:13.287Z,100428.72
2018-01-25T06:42:41.635Z,100431.70
2018-01-25T06:45:10.066Z,100433.37
2018-01-25T06:47:38.516Z,100448.14
2018-01-25T06:50:06.877Z,100440.28
2018-01-25T06:52:35.233Z,100438.20
2018-01-25T06:55:03.608Z,100436.50
2018-01-25T06:57:32.034Z,100440.35
2018-01-25T07:00:00.454Z,100447.34
2018-01-25T07:02:28.840Z,100450.59
2018-01-25T07:04:57.255Z,100442.05
2018-01-25T07:07:25.686Z,100443.92
2018-01-25T07:09:54.136Z,100446.09
2018-01-25T07:12:22.561Z,100447.30
2018-01-25T07:14:50.918Z,100441.16
2018-01-25T07:17:19.835Z,100441.70
2018-01-25T07:19:48.272Z,100446.70
2018-01-25T07:22:17.511Z,100437.67
2018-01-25T07:24:45.939Z,100446.08
2018-01-25T07:27:14.374Z,100443.84
2018-01-25T07:29:42.827Z,100449.69
2018-01-25T07:32:11.384Z,100448.50
2018-01-25T07:34:39.837Z,100454.06
2018-01-25T07:37:08.276Z,100457.08
2018-01-25T07:39:37.462Z,100455.66
2018-01-25T07:42:05.848Z,100461.30
2018-01-25T07:44:35.302Z,100452.80
2018-01-25T07:47:03.782Z,100448.33
2018-01-25T07:49:32.463Z,100449.51
2018-01-25T07:52:00.994Z,100456.98
2018-01-25T07:54:30.332Z,100454.34
2018-01-25T07:56:58.768Z,100448.11
2018-01-25T07:59:27.291Z,100463.97
2018-01-25T08:01:55.795Z,100465.38
2018-01-25T08:04:24.218Z,100461.58
2018-01-25T08:06:52.716Z,100453.02
2018-01-25T08:11:55.969Z,100461.31
2018-01-25T08:14:24.472Z,100455.25
2018-01-25T08:16:53.137Z,100456.81
2018-01-25T08:19:21.707Z,100459.35
2018-01-25T08:21:50.302Z,100455.93
2018-01-25T08:24:18.893Z,100467.64
2018-01-25T08:26:47.470Z,100471.06
2018-01-25T08:29:16.248Z,100471.34
2018-01-25T08:31:44.680Z,100471.52
2018-01-25T08:34:13.872Z,100473.95
2018-01-25T08:36:43.088Z,100483.34
2018-01-25T08:39:11.531Z,100484.91
2018-01-25T08:41:39.920Z,100469.59
2018-01-25T08:44:08.327Z,100478.06
2018-01-25T08:46:36.767Z,100479.99
2018-01-25T08:49:05.204Z,100479.19
2018-01-25T08:51:33.623Z,100484.87
2018-01-25T08:54:02.044Z,100486.27
2018-01-25T08:56:30.409Z,100484.11
2018-01-25T08:58:59.549Z,100481.30
2018-01-25T09:01:27.905Z,100485.68
2018-01-25T09:03:56.327Z,100494.86
2018-01-25T09:06:24.731Z,100493.70
2018-01-25T09:08:53.158Z,100490.25
2018-01-25T09:11:21.590Z,100492.64
2018-01-25T09:13:49.973Z,100501.08
2018-01-25T09:16:18.338Z,100497.95
2018-01-25T09:18:46.789Z,100506.84
2018-01-25T09:21:15.170Z,100506.10
2018-01-25T09:23:43.791Z,100515.48
2018-01-25T09:26:12.158Z,100520.44
2018-01-25T09:28:40.583Z,100525.71
2018-01-25T09:31:09.047Z,100520.14
2018-01-25T09:33:38.185Z,100526.53
2018-01-25T09:36:06.612Z,100524.98
2018-01-25T09:38:35.071Z,100525.65
2018-01-25T09:41:05.016Z,100524.23
2018-01-25T09:43:34.415Z,100524.04
2018-01-25T09:46:03.544Z,100527.70
2018-01-25T09:48:31.965Z,100523.68
2018-01-25T09:51:00.340Z,100528.92
2018-01-25T09:53:28.701Z,100530.41
2018-01-25T09:55:57.105Z,100528.64
2018-01-25T09:58:25.457Z,100535.91
2018-01-25T10:00:53.846Z,100535.91
2018-01-25T10:03:22.300Z,100533.95
2018-01-25T10:05:50.744Z,100538.44
2018-01-25T10:08:19.175Z,100546.17
2018-01-25T10:10:47.615Z,100542.91
2018-01-25T10:13:16.744Z,100542.91
2018-01-25T10:15:45.130Z,100544.75
2018-01-25T10:18:13.565Z,100548.28
2018-01-25T10:20:42.759Z,100551.07
2018-01-25T10:23:11.911Z,100546.11
2018-01-25T10:25:40.260Z,100551.48
2018-01-25T10:28:09.403Z,100546.71
2018-01-25T10:30:37.752Z,100543.23
2018-01-25T10:33:06.108Z,100547.66
2018-01-25T10:35:35.460Z,100546.93
2018-01-25T10:38:03.829Z,100545.10
2018-01-25T10:40:32.185Z,100532.37
2018-01-25T10:43:00.614Z,100523.91
2018-01-25T10:45:29.052Z,100521.72
2018-01-25T10:47:57.511Z,100516.01
2018-01-25T10:50:25.940Z,100524.57
2018-01-25T10:52:54.369Z,100521.06
2018-01-25T10:55:23.891Z,100519.42
2018-01-25T10:57:52.269Z,100520.97
2018-01-25T11:00:20.704Z,100528.36
2018-01-25T11:02:49.135Z,100522.68
2018-01-25T11:05:17.608Z,100532.78
2018-01-25T11:07:45.980Z,100533.80
2018-01-25T11:10:14.400Z,100530.53
2018-01-25T11:12:42.872Z,100530.13
2018-01-25T11:15:11.236Z,100528.78
2018-01-25T11:17:39.689Z,100522.07
2018-01-25T11:20:08.076Z,100522.59
2018-01-25T11:22:37.302Z,100536.65
2018-01-25T11:25:05.729Z,100536.38
2018-01-25T11:27:34.877Z,100546.64
2018-01-25T11:30:03.333Z,100539.79
2018-01-25T11:32:31.759Z,100534.20
2018-01-25T11:35:00.128Z,100528.42
2018-01-25T11:37:28.571Z,100529.31
2018-01-25T11:39:57.182Z,100522.69
2018-01-25T11:42:25.622Z,100524.09
2018-01-25T11:44:54.761Z,100521.69
2018-01-25T11:47:23.204Z,100521.45
2018-01-25T11:49:51.584Z,100507.14
2018-01-25T11:52:20.749Z,100511.87
2018-01-25T11:54:49.187Z,100513.64
2018-01-25T11:57:17.554Z,100504.70
2018-01-25T11:59:45.995Z,100507.90
2018-01-25T12:02:14.412Z,100518.30
2018-01-25T12:04:42.856Z,100518.02
2018-01-25T12:07:11.349Z,100514.36
2018-01-25T12:09:40.567Z,100508.52
2018-01-25T12:12:08.996Z,100495.25
2018-01-25T12:14:37.402Z,100500.28
2018-01-25T12:17:06.542Z,100502.27
2018-01-25T12:19:34.960Z,100498.45
2018-01-25T12:22:03.404Z,100486.11
2018-01-25T12:24:31.841Z,100477.44
2018-01-25T12:27:01.065Z,100478.93
2018-01-25T12:29:29.511Z,100483.75
2018-01-25T12:31:57.952Z,100495.30
2018-01-25T12:34:26.332Z,100492.70
2018-01-25T12:36:54.786Z,100488.94
2018-01-25T12:39:23.156Z,100488.39
2018-01-25T12:41:51.586Z,100484.88
2018-01-25T12:44:20.754Z,100474.30
2018-01-25T12:46:49.117Z,100471.84
2018-01-25T12:49:18.307Z,100471.61
2018-01-25T12:51:46.766Z,100462.84
2018-01-25T12:54:15.199Z,100461.69
2018-01-25T12:56:43.624Z,100466.23
2018-01-25T12:59:12.773Z,100458.06
2018-01-25T13:01:41.215Z,100460.89
2018-01-25T13:04:09.688Z,100467.73
2018-01-25T13:06:38.896Z,100458.55
2018-01-25T13:09:08.123Z,100463.36
2018-01-25T13:11:36.525Z,100465.02
2018-01-25T13:14:04.885Z,100464.42
2018-01-25T13:16:33.285Z,100470.61
2018-01-25T13:19:01.641Z,100463.44
2018-01-25T13:21:30.072Z,100467.14
2018-01-25T13:23:58.458Z,100463.06
2018-01-25T13:26:26.813Z,100453.77
2018-01-25T13:28:55.235Z,100449.66
2018-01-25T13:31:23.885Z,100447.77
2018-01-25T13:33:52.308Z,100446.59
2018-01-25T13:36:20.691Z,100446.77
2018-01-25T13:38:49.149Z,100450.54
2018-01-25T13:41:18.389Z,100450.91
2018-01-25T13:43:46.761Z,100448.39
2018-01-25T13:46:15.200Z,100440.56
2018-01-25T13:48:43.635Z,100441.88
2018-01-25T13:51:12.059Z,100435.45
2018-01-25T13:53:40.468Z,100437.57
2018-01-25T13:56:08.895Z,100433.38
2018-01-25T13:58:37.335Z,100439.16
2018-01-25T14:01:05.705Z,100441.39
2018-01-25T14:03:34.140Z,100455.58
2018-01-25T14:06:02.482Z,100457.33
2018-01-25T14:08:30.912Z,100447.17
2018-01-25T14:10:59.285Z,100445.11
2018-01-25T14:13:27.702Z,100437.31
2018-01-25T14:15:56.159Z,100437.38
2018-01-25T14:18:25.288Z,100433.80
2018-01-25T14:20:53.702Z,100436.70
2018-01-25T14:23:22.237Z,100430.45
2018-01-25T14:25:51.358Z,100430.80
2018-01-25T14:28:19.794Z,100425.64
2018-01-25T14:30:48.945Z,100428.49
2018-01-25T14:33:17.313Z,100432.56
2018-01-25T14:35:45.676Z,100435.76
2018-01-25T14:38:14.338Z,100434.41
2018-01-25T14:40:43.535Z,100436.33
2018-01-25T14:43:12.739Z,100436.81
2018-01-25T14:45:41.884Z,100438.23
2018-01-25T14:48:10.241Z,100430.73
2018-01-25T14:50:38.605Z,100431.58
2018-01-25T14:53:06.958Z,100425.20
2018-01-25T14:55:36.113Z,100426.05
2018-01-25T14:58:04.474Z,100423.31
2018-01-25T15:00:32.891Z,100423.78
2018-01-25T15:03:01.296Z,100418.04
2018-01-25T15:05:29.652Z,100417.00
2018-01-25T15:07:58.004Z,100423.91
2018-01-25T15:10:26.366Z,100428.44
2018-01-25T15:12:54.764Z,100423.23
2018-01-25T15:15:23.144Z,100427.55
2018-01-25T15:17:51.579Z,100435.16
2018-01-25T15:20:20.024Z,100430.73
2018-01-25T15:22:48.519Z,100428.48
2018-01-25T15:25:22.472Z,100435.23
2018-01-25T15:27:50.858Z,100435.62
2018-01-25T15:30:19.221Z,100441.20
2018-01-25T15:32:47.600Z,100437.46
2018-01-25T15:35:16.388Z,100436.80
2018-01-25T15:37:44.738Z,100433.52
2018-01-25T15:40:13.169Z,100431.39
2018-01-25T15:42:41.599Z,100432.02
2018-01-25T15:45:09.993Z,100428.68
2018-01-25T15:47:39.124Z,100424.66
2018-01-25T15:50:07.487Z,100433.96
2018-01-25T15:52:35.924Z,100439.58
2018-01-25T15:55:04.292Z,100442.69
2018-01-25T15:57:32.657Z,100447.98
2018-01-25T16:00:01.043Z,100442.84
2018-01-25T16:02:29.419Z,100443.92
2018-01-25T16:04:57.843Z,100444.94
2018-01-25T16:07:26.292Z,100448.06
2018-01-25T16:09:54.726Z,100450.84
2018-01-25T16:12:23.190Z,100452.64
2018-01-25T16:14:51.634Z,100444.25
2018-01-25T16:17:20.002Z,100445.08
2018-01-25T16:19:48.396Z,100457.23
2018-01-25T16:22:16.764Z,100446.45
2018-01-25T16:24:45.149Z,100453.47
2018-01-25T16:27:13.529Z,100453.18
2018-01-25T16:29:41.947Z,100451.44
2018-01-25T16:32:10.356Z,100451.67
2018-01-25T16:34:38.823Z,100452.52
2018-01-25T16:37:07.299Z,100445.39
2018-01-25T16:39:35.739Z,100451.11
2018-01-25T16:42:04.193Z,100441.95
2018-01-25T16:44:32.564Z,100447.24
2018-01-25T16:47:00.984Z,100445.02
2018-01-25T16:49:30.430Z,100444.59
2018-01-25T16:51:58.778Z,100445.53
2018-01-25T16:54:27.913Z,100446.88
2018-01-25T16:56:56.290Z,100442.82
2018-01-25T16:59:24.746Z,100445.92
2018-01-25T17:01:53.179Z,100445.22
2018-01-25T17:04:21.553Z,100451.03
2018-01-25T17:06:49.975Z,100457.28
2018-01-25T17:09:19.088Z,100465.28
2018-01-25T17:11:47.448Z,100459.23
2018-01-25T17:14:16.621Z,100462.31
2018-01-25T17:16:45.010Z,100469.91
2018-01-25T17:19:13.448Z,100458.58
2018-01-25T17:21:41.841Z,100469.11
2018-01-25T17:24:10.285Z,100478.45
2018-01-25T17:26:38.781Z,100481.72
2018-01-25T17:29:08.025Z,100482.17
2018-01-25T17:31:36.486Z,100483.63
2018-01-25T17:34:04.940Z,100484.11
2018-01-25T17:36:33.304Z,100487.42
2018-01-25T17:39:01.751Z,100484.23
2018-01-25T17:41:30.229Z,100491.35
2018-01-25T17:43:59.478Z,100490.41
2018-01-25T17:46:27.935Z,100483.41
2018-01-25T17:48:56.406Z,100495.97
2018-01-25T17:51:25.102Z,100495.02
2018-01-25T17:53:53.641Z,100504.07
2018-01-25T17:56:22.824Z,100495.63
2018-01-25T17:58:51.249Z,100497.54
2018-01-25T18:01:20.380Z,100502.03
2018-01-25T18:03:48.841Z,100502.73
2018-01-25T18:06:17.307Z,100508.42
2018-01-25T18:08:45.704Z,100510.70
2018-01-25T18:11:14.065Z,100514.56
2018-01-25T18:13:43.291Z,100515.92
2018-01-25T18:16:11.663Z,100514.98
2018-01-25T18:18:40.044Z,100514.77
2018-01-25T18:21:08.485Z,100515.83
2018-01-25T18:23:37.435Z,100513.78
2018-01-25T18:26:05.854Z,100520.52
2018-01-25T18:28:34.259Z,100515.80
2018-01-25T18:31:03.408Z,100527.53
2018-01-25T18:33:31.825Z,100529.42
2018-01-25T18:36:00.968Z,100522.41
2018-01-25T18:38:29.457Z,100529.52
2018-01-25T18:40:57.817Z,100527.75
2018-01-25T18:43:26.235Z,100519.49
2018-01-25T18:45:54.707Z,100527.53
2018-01-25T18:48:23.081Z,100523.34
2018-01-25T18:50:52.263Z,100529.42
2018-01-25T18:53:20.715Z,100529.70
2018-01-25T18:55:49.118Z,100522.48
2018-01-25T18:58:17.548Z,100518.17
2018-01-25T19:00:46.693Z,100521.78
2018-01-25T19:03:15.050Z,100514.92
2018-01-25T19:05:43.478Z,100514.47
2018-01-25T19:08:11.856Z,100522.84
2018-01-25T19:10:40.217Z,100521.81
2018-01-25T19:13:08.659Z,100510.08
2018-01-25T19:15:37.796Z,100512.45
2018-01-25T19:18:06.207Z,100509.87
2018-01-25T19:20:34.601Z,100501.83
2018-01-25T19:23:02.954Z,100497.11
2018-01-25T19:25:31.328Z,100500.52
2018-01-25T19:27:59.680Z,100498.13
2018-01-25T19:30:28.039Z,100494.36
2018-01-25T19:32:56.483Z,100492.39
2018-01-25T19:35:24.861Z,100495.42
2018-01-25T19:37:53.220Z,100494.89
2018-01-25T19:40:21.627Z,100495.06
2018-01-25T19:42:49.980Z,100494.73
2018-01-25T19:45:18.444Z,100496.29
2018-01-25T19:47:46.800Z,100491.84
2018-01-25T19:50:15.238Z,100492.72
2018-01-25T19:52:43.696Z,100496.02
2018-01-25T19:55:13.032Z,100492.56
2018-01-25T19:57:42.213Z,100493.72
2018-01-25T20:00:10.604Z,100496.06
2018-01-25T20:02:38.984Z,100493.23
2018-01-25T20:05:08.218Z,100499.63
2018-01-25T20:07:36.663Z,100492.41
2018-01-25T20:10:05.796Z,100497.83
2018-01-25T20:12:34.161Z,100500.63
2018-01-25T20:15:02.561Z,100509.12
2018-01-25T20:17:30.988Z,100506.66
2018-01-25T20:19:59.439Z,100507.67
2018-01-25T20:22:27.875Z,100511.78
2018-01-25T20:24:57.024Z,100510.52
2018-01-25T20:27:25.459Z,100511.13
2018-01-25T20:29:53.840Z,100510.72
2018-01-25T20:32:23.015Z,100512.31
2018-01-25T20:34:52.251Z,100511.58
2018-01-25T20:37:20.612Z,100517.03
2018-01-25T20:39:49.740Z,100515.80
2018-01-25T20:42:18.093Z,100504.19
2018-01-25T20:44:46.453Z,100506.41
2018-01-25T20:47:15.610Z,100510.55
2018-01-25T20:49:44.027Z,100509.48
2018-01-25T20:52:12.424Z,100508.50
2018-01-25T20:54:40.841Z,100505.63
2018-01-25T20:57:09.184Z,100507.97
2018-01-25T20:59:37.571Z,100509.16
2018-01-25T21:02:05.992Z,100503.66
2018-01-25T21:04:34.369Z,100501.56
2018-01-25T21:07:02.872Z,100501.15
2018-01-25T21:09:31.220Z,100499.71
2018-01-25T21:11:59.570Z,100502.45
2018-01-25T21:14:28.006Z,100501.52
2018-01-25T21:16:57.254Z,100502.53
2018-01-25T21:19:25.721Z,100500.94
2018-01-25T21:21:54.227Z,100502.13
2018-01-25T21:24:22.656Z,100494.66
2018-01-25T21:26:51.041Z,100493.06
2018-01-25T21:29:19.872Z,100492.36
2018-01-25T21:31:48.246Z,100495.48
2018-01-25T21:34:16.606Z,100495.23
2018-01-25T21:36:45.203Z,100496.30
2018-01-25T21:39:13.584Z,100498.34
2018-01-25T21:41:42.006Z,100498.80
2018-01-25T21:44:10.476Z,100491.91
2018-01-25T21:46:38.937Z,100498.23
2018-01-25T21:49:07.403Z,100489.16
2018-01-25T21:51:35.843Z,100493.14
2018-01-25T21:54:04.257Z,100491.95
2018-01-25T21:56:32.641Z,100488.27
2018-01-25T21:59:01.069Z,100488.27
2018-01-25T22:01:29.449Z,100493.80
2018-01-25T22:03:57.852Z,100494.30
2018-01-25T22:06:27.040Z,100485.27
2018-01-25T22:08:56.220Z,100489.66
2018-01-25T22:11:25.011Z,100490.72
2018-01-25T22:13:53.442Z,100497.14
2018-01-25T22:16:21.817Z,100500.62
2018-01-25T22:18:50.179Z,100506.61
2018-01-25T22:21:19.397Z,100498.55
2018-01-25T22:23:47.778Z,100502.88
2018-01-25T22:26:16.215Z,100495.91
2018-01-25T22:28:45.370Z,100493.34
2018-01-25T22:31:13.770Z,100496.34
2018-01-25T22:33:42.152Z,100488.13
2018-01-25T22:36:10.575Z,100495.72
2018-01-25T22:38:39.027Z,100499.93
2018-01-25T22:41:07.466Z,100491.11
2018-01-25T22:43:35.928Z,100490.91
2018-01-25T22:46:04.362Z,100488.34
2018-01-25T22:48:32.741Z,100488.55
2018-01-25T22:51:01.157Z,100495.25
2018-01-25T22:53:30.318Z,100494.61
2018-01-25T22:55:58.680Z,100503.57
2018-01-25T22:58:27.115Z,100503.78
2018-01-25T23:00:55.575Z,100495.61
2018-01-25T23:03:24.779Z,100500.11
2018-01-25T23:05:53.918Z,100491.40
2018-01-25T23:08:22.355Z,100500.13
2018-01-25T23:10:50.799Z,100495.81
2018-01-25T23:13:19.184Z,100493.40
2018-01-25T23:15:47.608Z,100487.55
2018-01-25T23:18:16.053Z,100489.84
2018-01-25T23:20:44.452Z,100489.44
2018-01-25T23:23:12.857Z,100486.02
2018-01-25T23:25:41.288Z,100484.77
2018-01-25T23:28:09.688Z,100490.20
2018-01-25T23:30:38.139Z,100486.05
2018-01-25T23:33:06.509Z,100487.84
2018-01-25T23:35:34.875Z,100484.99
2018-01-25T23:38:03.292Z,100489.31
2018-01-25T23:40:31.692Z,100489.38
2018-01-25T23:43:00.886Z,100494.87
2018-01-25T23:45:30.116Z,100492.58
2018-01-25T23:47:58.497Z,100492.41
2018-01-25T23:50:26.919Z,100495.61
2018-01-25T23:52:55.371Z,100496.11
2018-01-25T23:55:23.806Z,100492.96
2018-01-25T23:57:52.258Z,100489.58
